AirNav   Pilot Hours Calculator
 
 1937 users online  

14PA Dimascio Field Airport
Pottstown, Pennsylvania, USA

GOING TO POTTSTOWN?


FAA INFORMATION EFFECTIVE 02 JANUARY 2020

Location

FAA Identifier: 14PA
Lat/Long: 40-17-27.3440N 075-39-32.6700W
40-17.455733N 075-39.544500W
40.2909289,-75.6590750
(estimated)
Elevation: 350 ft. / 107 m (estimated)
Variation: 11W (1985)
From city: 3 miles N of POTTSTOWN, PA
Time zone: UTC -5 (UTC -4 during Daylight Saving Time)
Zip code: 19512

Airport Operations

Airport use: Private use. Permission required prior to landing
Activation date: 09/1975
Control tower: no
ARTCC: NEW YORK CENTER
FSS: WILLIAMSPORT FLIGHT SERVICE STATION
Attendance: UNATNDD
Wind indicator: yes
Segmented circle: no

Airport Communications

WX ASOS at PTW (6 nm SE): 119.425 (610-495-0823)
WX ASOS at RDG (15 nm W): 127.1 (610-372-9863)
WX AWOS-3 at UKT (15 nm NE): 119.475 (215-538-7610)
WX AWOS-3 at CKZ (18 nm E): 126.325 (215-257-7291)
WX AWOS-3T at OQN (18 nm S): 121.4 ((610) 692-6190)
WX AWOS-3 at XLL (18 nm NE): 127.875 (610-231-3111)

Nearby radio navigation aids

VOR radial/distance  VOR name  Freq  Var
PTWr321/6.1POTTSTOWN VORTAC116.5009W
ETXr185/17.4EAST TEXAS VOR/DME110.2009W
MXEr010/22.4MODENA VORTAC113.2009W
FJCr210/27.8ALLENTOWN VORTAC117.5010W
LRPr080/30.7LANCASTER VOR/DME117.3009W
ARDr284/34.5YARDLEY VOR/DME108.2010W
DQOr006/36.8DUPONT VORTAC114.0010W

 
NDB name  Hdg/Dist  Freq  Var  ID
AMBLER312/19.827512WING .. -. --.

Airport Services

Runway Information

Runway N/S

Dimensions: 1300 x 100 ft. / 396 x 30 m
Surface: turf
RUNWAY N  RUNWAY S
Traffic pattern: leftleft

Airport Ownership and Management from official FAA records

Ownership: Privately-owned
Owner: PAUL DIMASCIO
RD 2
BOYERTOWN, PA 19512
Manager: PAUL DIMASCIO
RD 2
BOYERTOWN, PA 19512

Airport Operational Statistics

Aircraft based on the field: 1
Single engine airplanes: 1
    

Additional Remarks

FOR CD CTC PHILADELPHIA APCH AT 800-354-9884.

Instrument Procedures

There are no published instrument procedures at 14PA.

Some nearby airports with instrument procedures:

N47 - Pottstown Municipal Airport (2 nm S)
KPTW - Heritage Field Airport (6 nm SE)
N10 - Perkiomen Valley Airport (12 nm SE)
KRDG - Reading Regional Airport/Carl A Spaatz Field (15 nm W)
KUKT - Quakertown Airport (15 nm NE)
KCKZ - Pennridge Airport (18 nm E)
KOQN - Brandywine Regional Airport (18 nm S)
KXLL - Allentown Queen City Municipal Airport (18 nm NE)
 
Loc | Ops | Rwys | IFR | FBO | Links
Com | Nav | Svcs | Stats | Notes
Area around 14PA (Dimascio Field Airport)
 
Road maps at: MapQuest Bing Google
 
Aerial photo
No photo
 
Sectional chart

 
Airport distance calculator
Flying to Dimascio Field Airport? Find the distance to fly.

From to 14PA

Sunrise and sunset
Times for 23-Jan-2020
 Local
(UTC-5)
 Zulu
(UTC)
Morning civil twilight06:5111:51
Sunrise07:2012:20
Sunset17:0922:09
Evening civil twilight17:3822:38

Current date and time
Zulu (UTC)  23-Jan-2020 20:35:52
Local (UTC-5)  23-Jan-2020 15:35:52
 
METAR
KPTW 
6nm SE 
231954Z AUTO 00000KT 8SM CLR 04/M08 A3034 RMK AO2 SLP274 T00441078
KRDG 
15nm W 
231954Z 00000KT 10SM CLR 06/M07 A3031 RMK AO2 SLP273 T00561067
KUKT 
15nm NE 
232020Z AUTO 00000KT 10SM CLR 06/M10 A3033 RMK A01
KCKZ 
18nm E 
232015Z AUTO 12003KT 10SM CLR 05/M08 A3032 RMK AO2
KOQN 
18nm S 
232015Z AUTO 00000KT 10SM CLR 06/M09 A3032 RMK AO2
KXLL 
18nm NE 
232015Z AUTO 00000KT 10SM CLR 05/M07 A3033 RMK AO2
TAF
KRDG 
15nm W 
231738Z 2318/2418 VRB03KT P6SM BKN250 FM241200 00000KT P6SM SCT200
NOTAMs
Click for the latest NOTAMs
NOTAMs are issued by the DoD/FAA and will open in a separate window not controlled by AirNav.

 

 
 

Would you like to see your business listed on this page?

 If your business provides an interesting product or service to pilots, flight crews, aircraft, or users of the Dimascio Field Airport, you should consider listing it here.  To start the listing process, click on the button below
 
Add a business
 

Other Pages about Dimascio Field Airport

Update a link
 
Copyright © AirNav, LLC. All rights reserved. Privacy Policy  Contact